Terminal Aerodrome Forecast
Issued by NWS

Home | Current Version | Previous Version | Text Only | Print | Product List | Glossary On
Versions: 1 2 3 4 5 6 7 8 9 10 11 12 13 14 15 16 17 18 19 20
000
FTUS43 KDLH 181121
TAFHYR
TAF
KHYR 181121Z 1812/1912 VRB02KT P6SM VCSH SCT070 BKN150
     FM181500 25005KT P6SM SCT025 BKN070
      TEMPO 1815/1817 BKN025
     FM181900 30007KT P6SM VCTS SCT035CB BKN070
      TEMPO 1819/1822 6SM TSRA BKN030CB
     FM190200 VRB02KT P6SM SCT060
     FM190900 00000KT 2SM BR SCT003=

USA.gov is the U.S. government's official web portal to all federal, state and local government web resources and services.